DLH003 LSZH-EDDF
Flight info
| Callsign | DLH003 |
|---|---|
| Flight time | 0h 40m |
| Altitude | 19000 |
| Route | DEGES Z1 SUDEN T164 KOVAN T163 SPESA SPESA5B |
| Aircraft | A321/M-SDE3FGHIRWY/LB1 |
Departure
| Time | 2026-05-06 20:49 |
|---|---|
| Airport | Zürich Airport (LSZH) |
Arrival
| Time | 2026-05-06 21:30 |
|---|---|
| Airport | Frankfurt Main Airport (EDDF) |
| Time | Latitude | Longitude | Altitude | Speed | Heading |
|---|---|---|---|---|---|
| 2026-05-06 20:02 | 47.45428 | 8.55804 | 1407 ft | 0 kts | 186° |
| 2026-05-06 20:40 | 47.45429 | 8.55804 | 1407 ft | 2 kts | 186° |
| 2026-05-06 20:40 | 47.45453 | 8.55807 | 1409 ft | 4 kts | 184° |
| 2026-05-06 20:41 | 47.45477 | 8.55811 | 1410 ft | 4 kts | 179° |
| 2026-05-06 20:41 | 47.45499 | 8.55801 | 1411 ft | 4 kts | 127° |
| 2026-05-06 20:41 | 47.45508 | 8.55767 | 1410 ft | 4 kts | 95° |
| 2026-05-06 20:41 | 47.45510 | 8.55729 | 1410 ft | 2 kts | 96° |
| 2026-05-06 20:42 | 47.45510 | 8.55726 | 1409 ft | 0 kts | 97° |
| 2026-05-06 20:44 | 47.45510 | 8.55730 | 1410 ft | 0 kts | 97° |
| 2026-05-06 20:44 | 47.45509 | 8.55743 | 1409 ft | 2 kts | 97° |
| 2026-05-06 20:44 | 47.45506 | 8.55777 | 1409 ft | 4 kts | 96° |
| 2026-05-06 20:45 | 47.45518 | 8.55820 | 1411 ft | 5 kts | 49° |
| 2026-05-06 20:45 | 47.45558 | 8.55842 | 1410 ft | 7 kts | 3° |
| 2026-05-06 20:45 | 47.45605 | 8.55850 | 1409 ft | 7 kts | 6° |
| 2026-05-06 20:45 | 47.45634 | 8.55885 | 1413 ft | 6 kts | 79° |
| 2026-05-06 20:46 | 47.45631 | 8.55963 | 1412 ft | 9 kts | 96° |
| 2026-05-06 20:46 | 47.45624 | 8.56063 | 1411 ft | 10 kts | 96° |
| 2026-05-06 20:46 | 47.45616 | 8.56173 | 1414 ft | 12 kts | 97° |
| 2026-05-06 20:46 | 47.45604 | 8.56331 | 1417 ft | 19 kts | 96° |
| 2026-05-06 20:47 | 47.45590 | 8.56528 | 1418 ft | 19 kts | 97° |
| 2026-05-06 20:47 | 47.45580 | 8.56719 | 1423 ft | 18 kts | 94° |
| 2026-05-06 20:47 | 47.45567 | 8.56869 | 1420 ft | 13 kts | 97° |
| 2026-05-06 20:47 | 47.45562 | 8.56939 | 1420 ft | 5 kts | 95° |
| 2026-05-06 20:48 | 47.45571 | 8.56986 | 1421 ft | 4 kts | 55° |
| 2026-05-06 20:48 | 47.45601 | 8.57017 | 1424 ft | 8 kts | 17° |
| 2026-05-06 20:48 | 47.45656 | 8.57012 | 1425 ft | 7 kts | 325° |
| 2026-05-06 20:48 | 47.45668 | 8.56939 | 1424 ft | 11 kts | 276° |
| 2026-05-06 20:49 | 47.45696 | 8.56546 | 1416 ft | 76 kts | 276° |
| 2026-05-06 20:49 | 47.45775 | 8.55403 | 1401 ft | 144 kts | 276° |
| 2026-05-06 20:49 | 47.45886 | 8.53778 | 1860 ft | 158 kts | 275° |
| 2026-05-06 20:49 | 47.46005 | 8.52170 | 2694 ft | 156 kts | 274° |
| 2026-05-06 20:50 | 47.46118 | 8.50584 | 3424 ft | 155 kts | 274° |
| 2026-05-06 20:50 | 47.46229 | 8.49002 | 4023 ft | 157 kts | 273° |
| 2026-05-06 20:50 | 47.45968 | 8.47482 | 4679 ft | 157 kts | 234° |
| 2026-05-06 20:50 | 47.45061 | 8.46348 | 4931 ft | 188 kts | 221° |
| 2026-05-06 20:51 | 47.44149 | 8.44874 | 5233 ft | 205 kts | 245° |
| 2026-05-06 20:51 | 47.43712 | 8.42776 | 5692 ft | 217 kts | 255° |
| 2026-05-06 20:51 | 47.43459 | 8.41367 | 6398 ft | 207 kts | 255° |
| 2026-05-06 20:51 | 47.42789 | 8.38742 | 7290 ft | 209 kts | 238° |
| 2026-05-06 20:52 | 47.42122 | 8.37703 | 7684 ft | 214 kts | 218° |
| 2026-05-06 20:52 | 47.40185 | 8.36918 | 8515 ft | 228 kts | 179° |
| 2026-05-06 20:52 | 47.39160 | 8.37359 | 8915 ft | 238 kts | 157° |
| 2026-05-06 20:52 | 47.37977 | 8.39135 | 9499 ft | 255 kts | 120° |
| 2026-05-06 20:53 | 47.37695 | 8.41755 | 10040 ft | 268 kts | 84° |
| 2026-05-06 20:53 | 47.38444 | 8.44269 | 10586 ft | 272 kts | 53° |
| 2026-05-06 20:53 | 47.39617 | 8.46421 | 11264 ft | 268 kts | 45° |
| 2026-05-06 20:53 | 47.40968 | 8.48345 | 11740 ft | 273 kts | 41° |
| 2026-05-06 20:54 | 47.42375 | 8.50218 | 12319 ft | 272 kts | 40° |
| 2026-05-06 20:54 | 47.43794 | 8.52076 | 12897 ft | 273 kts | 40° |
| 2026-05-06 20:54 | 47.45191 | 8.54001 | 13349 ft | 280 kts | 49° |
| 2026-05-06 20:54 | 47.46119 | 8.56605 | 13484 ft | 297 kts | 78° |
| 2026-05-06 20:55 | 47.46179 | 8.59714 | 13709 ft | 311 kts | 99° |
| 2026-05-06 20:55 | 47.45908 | 8.62940 | 14191 ft | 319 kts | 99° |
| 2026-05-06 20:55 | 47.45641 | 8.66201 | 14811 ft | 322 kts | 99° |
| 2026-05-06 20:55 | 47.45379 | 8.69448 | 15457 ft | 323 kts | 99° |
| 2026-05-06 20:56 | 47.45118 | 8.72752 | 16094 ft | 325 kts | 99° |
| 2026-05-06 20:56 | 47.44851 | 8.76115 | 16751 ft | 326 kts | 99° |
| 2026-05-06 20:56 | 47.44667 | 8.79422 | 17353 ft | 330 kts | 89° |
| 2026-05-06 20:56 | 47.45207 | 8.82730 | 17950 ft | 337 kts | 65° |
| 2026-05-06 20:57 | 47.46582 | 8.85536 | 18491 ft | 342 kts | 43° |
| 2026-05-06 20:57 | 47.48510 | 8.87620 | 18949 ft | 346 kts | 25° |
| 2026-05-06 20:57 | 47.50792 | 8.88795 | 19415 ft | 349 kts | 15° |
| 2026-05-06 20:57 | 47.53150 | 8.89722 | 19926 ft | 352 kts | 14° |
| 2026-05-06 20:58 | 47.55565 | 8.90645 | 20146 ft | 366 kts | 14° |
| 2026-05-06 20:58 | 47.58080 | 8.91596 | 20285 ft | 380 kts | 13° |
| 2026-05-06 20:58 | 47.60719 | 8.92222 | 20606 ft | 387 kts | 6° |
| 2026-05-06 20:58 | 47.63410 | 8.92645 | 21059 ft | 391 kts | 4° |
| 2026-05-06 20:59 | 47.66132 | 8.92987 | 21538 ft | 394 kts | 3° |
| 2026-05-06 20:59 | 47.68877 | 8.93289 | 22062 ft | 395 kts | 2° |
| 2026-05-06 20:59 | 47.71635 | 8.93579 | 22568 ft | 397 kts | 3° |
| 2026-05-06 20:59 | 47.74399 | 8.93886 | 23035 ft | 400 kts | 3° |
| 2026-05-06 21:00 | 47.77182 | 8.94217 | 23490 ft | 403 kts | 3° |
| 2026-05-06 21:00 | 47.80001 | 8.94565 | 23697 ft | 411 kts | 3° |
| 2026-05-06 21:00 | 47.82878 | 8.94924 | 23825 ft | 420 kts | 3° |
| 2026-05-06 21:00 | 47.85826 | 8.95296 | 23946 ft | 430 kts | 4° |
| 2026-05-06 21:01 | 47.88836 | 8.95683 | 24102 ft | 438 kts | 4° |
| 2026-05-06 21:01 | 47.91895 | 8.96076 | 24408 ft | 442 kts | 4° |
| 2026-05-06 21:01 | 47.94969 | 8.96465 | 24722 ft | 446 kts | 3° |
| 2026-05-06 21:01 | 47.98080 | 8.96854 | 25032 ft | 449 kts | 3° |
| 2026-05-06 21:02 | 48.01209 | 8.97246 | 25344 ft | 453 kts | 3° |
| 2026-05-06 21:02 | 48.04366 | 8.97645 | 25628 ft | 456 kts | 3° |
| 2026-05-06 21:02 | 48.07534 | 8.98046 | 25850 ft | 459 kts | 3° |
| 2026-05-06 21:02 | 48.10672 | 8.98442 | 25922 ft | 457 kts | 3° |
| 2026-05-06 21:03 | 48.13825 | 8.98846 | 25928 ft | 454 kts | 3° |
| 2026-05-06 21:03 | 48.16982 | 8.99248 | 26223 ft | 455 kts | 4° |
| 2026-05-06 21:03 | 48.20130 | 8.99652 | 26763 ft | 452 kts | 4° |
| 2026-05-06 21:03 | 48.23268 | 9.00053 | 27169 ft | 453 kts | 4° |
| 2026-05-06 21:04 | 48.26424 | 9.00453 | 27432 ft | 457 kts | 4° |
| 2026-05-06 21:04 | 48.29604 | 9.00856 | 27702 ft | 457 kts | 4° |
| 2026-05-06 21:04 | 48.32763 | 9.01257 | 27974 ft | 456 kts | 4° |
| 2026-05-06 21:04 | 48.35931 | 9.01656 | 28376 ft | 457 kts | 4° |
| 2026-05-06 21:05 | 48.39106 | 9.02062 | 28804 ft | 457 kts | 4° |
| 2026-05-06 21:05 | 48.42276 | 9.02473 | 29235 ft | 457 kts | 4° |
| 2026-05-06 21:05 | 48.45453 | 9.02885 | 29556 ft | 459 kts | 4° |
| 2026-05-06 21:05 | 48.48608 | 9.03693 | 29814 ft | 462 kts | 18° |
| 2026-05-06 21:06 | 48.51522 | 9.05752 | 29957 ft | 467 kts | 34° |
| 2026-05-06 21:06 | 48.54116 | 9.08646 | 30088 ft | 471 kts | 38° |
| 2026-05-06 21:06 | 48.56717 | 9.11708 | 30247 ft | 474 kts | 39° |
| 2026-05-06 21:06 | 48.59318 | 9.14786 | 30436 ft | 478 kts | 39° |
| 2026-05-06 21:07 | 48.61942 | 9.17895 | 30477 ft | 480 kts | 39° |
| 2026-05-06 21:07 | 48.64565 | 9.21002 | 29769 ft | 479 kts | 39° |
| 2026-05-06 21:07 | 48.67313 | 9.23870 | 28865 ft | 480 kts | 27° |
| 2026-05-06 21:07 | 48.70379 | 9.25730 | 28339 ft | 471 kts | 13° |
| 2026-05-06 21:08 | 48.73579 | 9.26461 | 28018 ft | 462 kts | 2° |
| 2026-05-06 21:08 | 48.76780 | 9.26750 | 27853 ft | 459 kts | 1° |
| 2026-05-06 21:08 | 48.79973 | 9.26996 | 27896 ft | 459 kts | 1° |
| 2026-05-06 21:08 | 48.83159 | 9.27216 | 27890 ft | 459 kts | 1° |
| 2026-05-06 21:09 | 48.86354 | 9.27427 | 27886 ft | 459 kts | 1° |
| 2026-05-06 21:09 | 48.89545 | 9.27638 | 27882 ft | 459 kts | 1° |
| 2026-05-06 21:09 | 48.92702 | 9.27856 | 27880 ft | 459 kts | 1° |
| 2026-05-06 21:09 | 48.95889 | 9.28081 | 27786 ft | 458 kts | 2° |
| 2026-05-06 21:10 | 48.99064 | 9.28312 | 27272 ft | 454 kts | 2° |
| 2026-05-06 21:10 | 49.02122 | 9.28544 | 26680 ft | 449 kts | 2° |
| 2026-05-06 21:10 | 49.05285 | 9.28787 | 26079 ft | 444 kts | 2° |
| 2026-05-06 21:10 | 49.08364 | 9.29020 | 25497 ft | 439 kts | 2° |
| 2026-05-06 21:11 | 49.11400 | 9.29245 | 24917 ft | 435 kts | 2° |
| 2026-05-06 21:11 | 49.14414 | 9.29465 | 24346 ft | 430 kts | 2° |
| 2026-05-06 21:11 | 49.17380 | 9.29685 | 23793 ft | 423 kts | 2° |
| 2026-05-06 21:11 | 49.20300 | 9.29891 | 23365 ft | 415 kts | 1° |
| 2026-05-06 21:12 | 49.23152 | 9.29421 | 22945 ft | 413 kts | 345° |
| 2026-05-06 21:12 | 49.25926 | 9.28274 | 22525 ft | 412 kts | 343° |
| 2026-05-06 21:12 | 49.28685 | 9.27358 | 22122 ft | 411 kts | 355° |
| 2026-05-06 21:12 | 49.31536 | 9.27524 | 21725 ft | 410 kts | 11° |
| 2026-05-06 21:13 | 49.34263 | 9.28705 | 21248 ft | 406 kts | 19° |
| 2026-05-06 21:13 | 49.36932 | 9.30105 | 20719 ft | 405 kts | 19° |
| 2026-05-06 21:13 | 49.39636 | 9.31311 | 20109 ft | 402 kts | 8° |
| 2026-05-06 21:13 | 49.42410 | 9.31721 | 19540 ft | 399 kts | 4° |
| 2026-05-06 21:14 | 49.45177 | 9.32024 | 19171 ft | 398 kts | 4° |
| 2026-05-06 21:14 | 49.47940 | 9.32324 | 18810 ft | 396 kts | 4° |
| 2026-05-06 21:14 | 49.50684 | 9.32624 | 18452 ft | 394 kts | 4° |
| 2026-05-06 21:14 | 49.53416 | 9.32925 | 18027 ft | 392 kts | 4° |
| 2026-05-06 21:15 | 49.56099 | 9.33224 | 17544 ft | 389 kts | 4° |
| 2026-05-06 21:15 | 49.58786 | 9.33526 | 17062 ft | 386 kts | 4° |
| 2026-05-06 21:15 | 49.61493 | 9.33833 | 16579 ft | 383 kts | 4° |
| 2026-05-06 21:15 | 49.64144 | 9.34134 | 16113 ft | 380 kts | 4° |
| 2026-05-06 21:16 | 49.66729 | 9.34430 | 15664 ft | 377 kts | 4° |
| 2026-05-06 21:16 | 49.69339 | 9.34731 | 15203 ft | 375 kts | 4° |
| 2026-05-06 21:16 | 49.71915 | 9.35031 | 14710 ft | 371 kts | 4° |
| 2026-05-06 21:16 | 49.74483 | 9.35333 | 14219 ft | 367 kts | 4° |
| 2026-05-06 21:17 | 49.77021 | 9.35637 | 13743 ft | 365 kts | 4° |
| 2026-05-06 21:17 | 49.79542 | 9.35943 | 13215 ft | 361 kts | 4° |
| 2026-05-06 21:17 | 49.82039 | 9.36253 | 12690 ft | 358 kts | 4° |
| 2026-05-06 21:17 | 49.84517 | 9.36585 | 12164 ft | 356 kts | 4° |
| 2026-05-06 21:18 | 49.86983 | 9.36871 | 11683 ft | 353 kts | 358° |
| 2026-05-06 21:18 | 49.89363 | 9.36183 | 11254 ft | 346 kts | 336° |
| 2026-05-06 21:18 | 49.91442 | 9.34359 | 10832 ft | 343 kts | 324° |
| 2026-05-06 21:18 | 49.93420 | 9.32314 | 10414 ft | 340 kts | 324° |
| 2026-05-06 21:19 | 49.95369 | 9.30288 | 10013 ft | 334 kts | 324° |
| 2026-05-06 21:19 | 49.97258 | 9.28324 | 9594 ft | 327 kts | 324° |
| 2026-05-06 21:19 | 49.99138 | 9.26386 | 9139 ft | 321 kts | 324° |
| 2026-05-06 21:19 | 50.00965 | 9.24512 | 8688 ft | 309 kts | 324° |
| 2026-05-06 21:20 | 50.02727 | 9.22715 | 8251 ft | 297 kts | 324° |
| 2026-05-06 21:20 | 50.04428 | 9.20991 | 7894 ft | 284 kts | 324° |
| 2026-05-06 21:20 | 50.06059 | 9.19354 | 7857 ft | 279 kts | 324° |
| 2026-05-06 21:20 | 50.06823 | 9.18588 | 7855 ft | 279 kts | 324° |
| 2026-05-06 21:21 | 50.08196 | 9.17210 | 7854 ft | 280 kts | 324° |
| 2026-05-06 21:21 | 50.09830 | 9.15561 | 7858 ft | 280 kts | 324° |
| 2026-05-06 21:21 | 50.11462 | 9.13898 | 7857 ft | 280 kts | 324° |
| 2026-05-06 21:21 | 50.13093 | 9.12234 | 7856 ft | 280 kts | 324° |
| 2026-05-06 21:22 | 50.14857 | 9.10433 | 7857 ft | 280 kts | 324° |
| 2026-05-06 21:22 | 50.16456 | 9.08705 | 7844 ft | 278 kts | 315° |
| 2026-05-06 21:22 | 50.17639 | 9.06391 | 7478 ft | 271 kts | 299° |
| 2026-05-06 21:22 | 50.18273 | 9.03670 | 6982 ft | 268 kts | 273° |
| 2026-05-06 21:23 | 50.18004 | 9.00818 | 6487 ft | 268 kts | 246° |
| 2026-05-06 21:23 | 50.16893 | 8.98506 | 5986 ft | 270 kts | 220° |
| 2026-05-06 21:23 | 50.15374 | 8.96807 | 5469 ft | 267 kts | 214° |
| 2026-05-06 21:23 | 50.13838 | 8.95242 | 4963 ft | 260 kts | 214° |
| 2026-05-06 21:24 | 50.12474 | 8.93465 | 4458 ft | 252 kts | 234° |
| 2026-05-06 21:24 | 50.11684 | 8.91179 | 4182 ft | 237 kts | 251° |
| 2026-05-06 21:24 | 50.11138 | 8.88847 | 4038 ft | 217 kts | 251° |
| 2026-05-06 21:24 | 50.10648 | 8.86751 | 3994 ft | 194 kts | 251° |
| 2026-05-06 21:25 | 50.10205 | 8.84861 | 3888 ft | 179 kts | 251° |
| 2026-05-06 21:25 | 50.09783 | 8.83066 | 3698 ft | 174 kts | 253° |
| 2026-05-06 21:25 | 50.09379 | 8.81348 | 3477 ft | 167 kts | 252° |
| 2026-05-06 21:25 | 50.08980 | 8.79656 | 3253 ft | 166 kts | 252° |
| 2026-05-06 21:26 | 50.08585 | 8.77987 | 3022 ft | 163 kts | 253° |
| 2026-05-06 21:26 | 50.08196 | 8.76343 | 2811 ft | 161 kts | 252° |
| 2026-05-06 21:26 | 50.07814 | 8.74724 | 2585 ft | 155 kts | 252° |
| 2026-05-06 21:26 | 50.07456 | 8.73218 | 2386 ft | 144 kts | 253° |
| 2026-05-06 21:27 | 50.07230 | 8.72260 | 2284 ft | 141 kts | 254° |
| 2026-05-06 21:27 | 50.06895 | 8.70839 | 2092 ft | 138 kts | 253° |
| 2026-05-06 21:27 | 50.06564 | 8.69444 | 1911 ft | 137 kts | 253° |
| 2026-05-06 21:27 | 50.06232 | 8.68054 | 1723 ft | 136 kts | 254° |
| 2026-05-06 21:28 | 50.05910 | 8.66680 | 1517 ft | 135 kts | 254° |
| 2026-05-06 21:28 | 50.05586 | 8.65330 | 1310 ft | 135 kts | 251° |
| 2026-05-06 21:28 | 50.05261 | 8.63954 | 1139 ft | 136 kts | 251° |
| 2026-05-06 21:28 | 50.04926 | 8.62555 | 949 ft | 136 kts | 252° |
| 2026-05-06 21:29 | 50.04608 | 8.61194 | 757 ft | 135 kts | 252° |
| 2026-05-06 21:29 | 50.04284 | 8.59831 | 583 ft | 135 kts | 252° |
| 2026-05-06 21:29 | 50.03964 | 8.58481 | 393 ft | 133 kts | 252° |
| 2026-05-06 21:29 | 50.03666 | 8.57231 | 359 ft | 103 kts | 250° |
| 2026-05-06 21:30 | 50.03476 | 8.56439 | 359 ft | 53 kts | 249° |
| 2026-05-06 21:30 | 50.03377 | 8.56016 | 354 ft | 35 kts | 249° |
| 2026-05-06 21:30 | 50.03318 | 8.55738 | 353 ft | 24 kts | 257° |
| 2026-05-06 21:30 | 50.03314 | 8.55493 | 347 ft | 18 kts | 278° |
| 2026-05-06 21:31 | 50.03332 | 8.55331 | 343 ft | 9 kts | 280° |
| 2026-05-06 21:31 | 50.03335 | 8.55310 | 351 ft | 0 kts | 280° |
| 2026-05-06 21:33 | 50.03335 | 8.55304 | 349 ft | 3 kts | 280° |
| 2026-05-06 21:33 | 50.03346 | 8.55209 | 342 ft | 13 kts | 280° |
| 2026-05-06 21:33 | 50.03363 | 8.55054 | 350 ft | 15 kts | 278° |
| 2026-05-06 21:34 | 50.03351 | 8.54884 | 344 ft | 17 kts | 252° |
| 2026-05-06 21:34 | 50.03306 | 8.54693 | 336 ft | 20 kts | 249° |
| 2026-05-06 21:34 | 50.03274 | 8.54545 | 337 ft | 11 kts | 266° |
| 2026-05-06 21:34 | 50.03329 | 8.54471 | 336 ft | 12 kts | 338° |
| 2026-05-06 21:35 | 50.03372 | 8.54446 | 337 ft | 2 kts | 340° |
| 2026-05-06 21:35 | 50.03374 | 8.54445 | 337 ft | 0 kts | 340° |
| 2026-05-06 21:35 | 50.03384 | 8.54440 | 337 ft | 6 kts | 340° |
| 2026-05-06 21:35 | 50.03452 | 8.54400 | 346 ft | 12 kts | 339° |
| 2026-05-06 21:36 | 50.03541 | 8.54349 | 345 ft | 15 kts | 340° |
| 2026-05-06 21:36 | 50.03593 | 8.54319 | 350 ft | 3 kts | 340° |
| 2026-05-06 21:36 | 50.03626 | 8.54301 | 348 ft | 6 kts | 344° |
| 2026-05-06 21:36 | 50.03658 | 8.54324 | 348 ft | 5 kts | 47° |
| 2026-05-06 21:37 | 50.03679 | 8.54399 | 352 ft | 9 kts | 69° |
| 2026-05-06 21:37 | 50.03705 | 8.54508 | 346 ft | 12 kts | 70° |
| 2026-05-06 21:37 | 50.03733 | 8.54632 | 351 ft | 13 kts | 70° |
| 2026-05-06 21:37 | 50.03767 | 8.54774 | 350 ft | 15 kts | 70° |
| 2026-05-06 21:38 | 50.03807 | 8.54940 | 353 ft | 17 kts | 69° |
| 2026-05-06 21:38 | 50.03852 | 8.55128 | 354 ft | 20 kts | 69° |
| 2026-05-06 21:38 | 50.03902 | 8.55340 | 353 ft | 22 kts | 71° |
| 2026-05-06 21:38 | 50.03955 | 8.55565 | 355 ft | 21 kts | 69° |
| 2026-05-06 21:39 | 50.04005 | 8.55767 | 352 ft | 19 kts | 70° |
| 2026-05-06 21:39 | 50.04046 | 8.55939 | 356 ft | 16 kts | 70° |
| 2026-05-06 21:39 | 50.04082 | 8.56089 | 359 ft | 14 kts | 70° |
| 2026-05-06 21:39 | 50.04117 | 8.56233 | 355 ft | 15 kts | 71° |
| 2026-05-06 21:40 | 50.04153 | 8.56385 | 358 ft | 15 kts | 71° |
| 2026-05-06 21:40 | 50.04188 | 8.56536 | 358 ft | 15 kts | 68° |
| 2026-05-06 21:40 | 50.04213 | 8.56636 | 356 ft | 5 kts | 70° |
| 2026-05-06 21:40 | 50.04219 | 8.56663 | 364 ft | 0 kts | 71° |
| 2026-05-06 21:41 | 50.04219 | 8.56664 | 364 ft | 0 kts | 70° |
| 2026-05-06 21:41 | 50.04219 | 8.56665 | 364 ft | 0 kts | 69° |
| 2026-05-06 21:42 | 50.04224 | 8.56687 | 360 ft | 7 kts | 69° |
| 2026-05-06 21:42 | 50.04248 | 8.56777 | 366 ft | 9 kts | 59° |
| 2026-05-06 21:43 | 50.04290 | 8.56810 | 362 ft | 7 kts | 14° |
| 2026-05-06 21:43 | 50.04334 | 8.56824 | 360 ft | 5 kts | 11° |
| 2026-05-06 21:43 | 50.04359 | 8.56832 | 362 ft | 2 kts | 12° |
| 2026-05-06 21:43 | 50.04364 | 8.56834 | 363 ft | 0 kts | 12° |
| 2026-05-06 21:44 | 50.04375 | 8.56837 | 360 ft | 4 kts | 8° |
| 2026-05-06 21:44 | 50.04414 | 8.56847 | 364 ft | 8 kts | 8° |
| 2026-05-06 21:44 | 50.04479 | 8.56864 | 359 ft | 11 kts | 13° |